createdAt,value
2018-09-06T00:00:22.401Z,85.95
2018-09-06T00:02:57.111Z,39.60
2018-09-06T00:05:32.029Z,62.60
2018-09-06T00:08:07.208Z,43.55
2018-09-06T00:10:42.918Z,34.70
2018-09-06T00:13:19.153Z,41.08
2018-09-06T00:15:54.048Z,49.23
2018-09-06T00:18:28.991Z,43.02
2018-09-06T00:22:06.819Z,48.68
2018-09-06T00:24:41.648Z,34.60
2018-09-06T00:27:16.688Z,32.58
2018-09-06T00:29:51.522Z,26.42
2018-09-06T00:32:26.441Z,27.15
2018-09-06T00:35:01.263Z,51.48
2018-09-06T00:37:36.148Z,30.72
2018-09-06T00:40:11.470Z,31.65
2018-09-06T00:42:46.440Z,92.72
2018-09-06T00:45:21.382Z,45.75
2018-09-06T00:47:56.972Z,54.40
2018-09-06T00:50:37.330Z,52.67
2018-09-06T00:53:12.915Z,49.35
2018-09-06T00:55:47.721Z,38.28
2018-09-06T00:58:22.546Z,36.77
2018-09-06T01:00:57.369Z,35.00
2018-09-06T01:03:32.135Z,42.48
2018-09-06T01:06:07.445Z,28.67
2018-09-06T01:08:42.425Z,32.53
2018-09-06T01:11:18.216Z,29.60
2018-09-06T01:13:53.110Z,31.37
2018-09-06T01:16:30.841Z,40.70
2018-09-06T01:19:05.905Z,69.90
2018-09-06T01:21:41.577Z,40.50
2018-09-06T01:24:16.914Z,79.67
2018-09-06T01:26:52.116Z,65.12
2018-09-06T01:29:26.785Z,89.20
2018-09-06T01:32:01.548Z,65.35
2018-09-06T01:34:36.433Z,60.83
2018-09-06T01:37:12.760Z,45.90
2018-09-06T01:39:47.361Z,67.72
2018-09-06T01:42:22.449Z,72.30
2018-09-06T01:44:57.057Z,117.17
2018-09-06T01:47:32.760Z,73.37
2018-09-06T01:50:07.517Z,62.40
2018-09-06T01:52:42.289Z,38.70
2018-09-06T01:55:18.177Z,84.28
2018-09-06T01:57:54.023Z,50.75
2018-09-06T02:00:28.828Z,52.10
2018-09-06T02:03:03.713Z,67.15
2018-09-06T02:05:38.527Z,90.60
2018-09-06T02:08:15.118Z,64.25
2018-09-06T02:10:50.411Z,102.58
2018-09-06T02:13:25.217Z,85.10
2018-09-06T02:16:00.641Z,72.32
2018-09-06T02:18:35.446Z,68.75
2018-09-06T02:21:11.523Z,41.98
2018-09-06T02:23:46.265Z,60.40
2018-09-06T02:26:21.031Z,72.67
2018-09-06T02:28:56.457Z,57.30
2018-09-06T02:31:31.192Z,24.05
2018-09-06T02:34:06.351Z,54.85
2018-09-06T02:36:40.900Z,49.03
2018-09-06T02:39:16.244Z,53.08
2018-09-06T02:41:51.286Z,44.88
2018-09-06T02:44:26.015Z,40.90
2018-09-06T02:47:01.119Z,60.03
2018-09-06T02:49:42.191Z,26.73
2018-09-06T02:52:17.267Z,41.40
2018-09-06T02:54:51.804Z,31.33
2018-09-06T02:57:26.656Z,35.30
2018-09-06T03:00:01.966Z,31.48
2018-09-06T03:02:36.580Z,27.50
2018-09-06T03:05:11.478Z,23.98
2018-09-06T03:07:46.473Z,53.87
2018-09-06T03:10:22.232Z,105.67
2018-09-06T03:12:57.272Z,122.67
2018-09-06T03:15:32.290Z,77.80
2018-09-06T03:18:07.013Z,52.53
2018-09-06T03:20:41.785Z,78.22
2018-09-06T03:23:16.589Z,44.67
2018-09-06T03:25:52.077Z,71.45
2018-09-06T03:28:27.045Z,77.03
2018-09-06T03:31:03.126Z,55.55
2018-09-06T03:33:37.925Z,48.20
2018-09-06T03:36:13.022Z,66.45
2018-09-06T03:38:48.061Z,54.08
2018-09-06T03:41:22.743Z,94.07
2018-09-06T03:43:57.687Z,89.45
2018-09-06T03:46:34.786Z,79.95
2018-09-06T03:49:09.528Z,87.53
2018-09-06T03:51:44.218Z,138.88
2018-09-06T03:54:19.546Z,89.17
2018-09-06T03:56:54.382Z,42.43
2018-09-06T03:59:29.121Z,39.30
2018-09-06T04:02:04.450Z,46.73
2018-09-06T04:04:40.319Z,40.35
2018-09-06T04:07:16.113Z,32.80
2018-09-06T04:09:51.895Z,34.13
2018-09-06T04:12:26.841Z,27.52
2018-09-06T04:15:03.812Z,54.00
2018-09-06T04:17:38.632Z,84.17
2018-09-06T04:20:13.332Z,56.53
2018-09-06T04:22:50.254Z,42.45
2018-09-06T04:25:25.458Z,20.95
2018-09-06T04:28:00.274Z,33.42
2018-09-06T04:30:35.966Z,53.13
2018-09-06T04:33:13.758Z,61.65
2018-09-06T04:35:49.221Z,54.95
2018-09-06T04:38:25.483Z,31.27
2018-09-06T04:41:00.561Z,54.55
2018-09-06T04:43:35.255Z,48.92
2018-09-06T04:46:10.072Z,73.72
2018-09-06T04:48:44.854Z,54.42
2018-09-06T04:51:20.487Z,51.30
2018-09-06T04:53:55.314Z,36.25
2018-09-06T04:56:30.157Z,43.68
2018-09-06T04:59:05.102Z,24.37
2018-09-06T05:01:40.215Z,29.52
2018-09-06T05:04:15.908Z,34.98
2018-09-06T05:06:51.972Z,53.10
2018-09-06T05:09:26.697Z,32.25
2018-09-06T05:12:02.550Z,65.12
2018-09-06T05:14:38.119Z,97.20
2018-09-06T05:17:15.012Z,78.90
2018-09-06T05:19:51.436Z,65.35
2018-09-06T05:22:27.629Z,63.70
2018-09-06T05:25:02.415Z,41.88
2018-09-06T05:27:38.756Z,48.85
2018-09-06T05:30:16.324Z,96.60
2018-09-06T05:39:48.672Z,49.08
2018-09-06T05:42:23.477Z,78.33
2018-09-06T05:44:59.205Z,53.78
2018-09-06T05:47:34.228Z,29.27
2018-09-06T05:50:08.919Z,33.20
2018-09-06T05:52:44.692Z,39.98
2018-09-06T05:55:20.396Z,31.40
2018-09-06T05:57:56.896Z,67.05
2018-09-06T06:00:37.679Z,40.30
2018-09-06T06:03:14.339Z,50.28
2018-09-06T06:05:49.156Z,150.20
2018-09-06T06:08:35.300Z,47.00
2018-09-06T06:11:10.861Z,36.35
2018-09-06T06:13:45.575Z,32.60
2018-09-06T06:16:22.125Z,60.75
2018-09-06T06:18:56.898Z,65.78
2018-09-06T06:21:31.585Z,46.20
2018-09-06T06:24:07.006Z,34.05
2018-09-06T06:26:41.789Z,39.18
2018-09-06T06:29:16.695Z,30.20
2018-09-06T06:31:51.466Z,25.32
2018-09-06T06:34:26.592Z,31.75
2018-09-06T06:37:02.143Z,29.57
2018-09-06T06:39:37.498Z,26.10
2018-09-06T06:42:12.630Z,29.98
2018-09-06T06:44:48.083Z,23.12
2018-09-06T06:47:23.235Z,28.20
2018-09-06T06:49:58.676Z,19.00
2018-09-06T06:52:35.216Z,16.77
2018-09-06T06:55:10.301Z,15.88
2018-09-06T06:57:46.174Z,21.73
2018-09-06T07:00:21.514Z,17.67
2018-09-06T07:02:56.855Z,11.50
2018-09-06T07:05:32.792Z,12.30
2018-09-06T07:08:09.758Z,27.32
2018-09-06T07:10:44.200Z,20.23
2018-09-06T07:13:20.806Z,12.43
2018-09-06T07:15:55.627Z,15.13
2018-09-06T07:18:30.202Z,16.23
2018-09-06T07:21:04.986Z,17.45
2018-09-06T07:23:39.569Z,18.35
2018-09-06T07:26:14.183Z,20.97
2018-09-06T07:28:48.648Z,22.95
2018-09-06T07:31:23.471Z,21.70
2018-09-06T07:33:58.193Z,23.38
2018-09-06T07:36:33.733Z,28.87
2018-09-06T07:39:09.513Z,24.18
2018-09-06T07:41:44.071Z,27.05
2018-09-06T07:44:18.560Z,29.00
2018-09-06T07:46:53.330Z,34.45
2018-09-06T07:49:27.780Z,32.05
2018-09-06T07:52:02.321Z,41.58
2018-09-06T07:54:36.944Z,66.60
2018-09-06T07:57:11.630Z,49.33
2018-09-06T07:59:46.380Z,30.23
2018-09-06T08:02:21.145Z,28.55
2018-09-06T08:04:55.716Z,30.23
2018-09-06T08:07:30.859Z,32.33
2018-09-06T08:10:05.738Z,21.42
2018-09-06T08:12:40.530Z,17.87
2018-09-06T08:15:15.050Z,25.00
2018-09-06T08:17:49.635Z,24.52
2018-09-06T08:20:24.193Z,24.45
2018-09-06T08:22:58.753Z,25.72
2018-09-06T08:25:33.491Z,41.63
2018-09-06T08:28:08.058Z,50.40
2018-09-06T08:30:43.788Z,60.08
2018-09-06T08:33:18.524Z,27.07
2018-09-06T08:35:53.295Z,48.38
2018-09-06T08:38:28.735Z,31.93
2018-09-06T08:41:03.490Z,21.85
2018-09-06T08:43:38.062Z,19.17
2018-09-06T08:46:12.952Z,22.73
2018-09-06T08:48:47.707Z,24.02
2018-09-06T08:51:22.359Z,17.12
2018-09-06T08:53:57.940Z,17.73
2018-09-06T08:56:32.684Z,22.80
2018-09-06T08:59:07.527Z,15.48
2018-09-06T09:01:44.031Z,16.77
2018-09-06T09:04:18.856Z,17.65
2018-09-06T09:06:53.444Z,16.87
2018-09-06T09:09:27.973Z,16.07
2018-09-06T09:12:02.740Z,14.95
2018-09-06T09:14:38.286Z,27.65
2018-09-06T09:17:13.912Z,18.90
2018-09-06T09:19:48.597Z,14.30
2018-09-06T09:22:23.525Z,18.37
2018-09-06T09:24:58.117Z,18.85
2018-09-06T09:27:32.815Z,14.73
2018-09-06T09:30:07.251Z,14.18
2018-09-06T09:32:41.821Z,13.58
2018-09-06T09:35:16.405Z,20.02
2018-09-06T09:37:51.373Z,14.63
2018-09-06T09:40:28.018Z,18.20
2018-09-06T09:43:02.667Z,30.12
2018-09-06T09:45:37.460Z,63.55
2018-09-06T09:48:12.191Z,43.65
2018-09-06T09:53:21.859Z,20.60
2018-09-06T09:55:56.560Z,21.02
2018-09-06T09:58:31.255Z,11.45
2018-09-06T10:01:07.018Z,13.60
2018-09-06T10:03:48.114Z,19.48
2018-09-06T10:06:28.063Z,16.52
2018-09-06T10:09:08.039Z,20.25
2018-09-06T10:11:42.479Z,20.97
2018-09-06T10:14:17.246Z,16.85
2018-09-06T10:16:52.140Z,15.18
2018-09-06T10:19:27.161Z,19.65
2018-09-06T10:22:02.621Z,16.27
2018-09-06T10:24:38.590Z,22.40
2018-09-06T10:27:14.420Z,18.02
2018-09-06T10:29:49.949Z,13.40
2018-09-06T10:32:26.574Z,17.10
2018-09-06T10:35:01.301Z,15.43
2018-09-06T10:37:37.032Z,10.48
2018-09-06T10:40:11.776Z,20.55
2018-09-06T10:42:48.292Z,25.60
2018-09-06T10:45:22.932Z,37.63
2018-09-06T10:47:57.566Z,35.35
2018-09-06T10:50:32.465Z,77.55
2018-09-06T10:53:07.701Z,40.85
2018-09-06T10:55:43.219Z,29.82
2018-09-06T11:01:01.471Z,15.28
2018-09-06T11:03:38.163Z,14.30
2018-09-06T11:06:13.261Z,13.22
2018-09-06T11:08:49.750Z,12.75
2018-09-06T11:11:24.997Z,13.28
2018-09-06T11:14:04.771Z,14.93
2018-09-06T11:16:40.972Z,11.75
2018-09-06T11:19:16.336Z,12.43
2018-09-06T11:21:51.466Z,14.40
2018-09-06T11:24:26.356Z,12.00
2018-09-06T11:27:03.988Z,11.78
2018-09-06T11:29:41.384Z,12.03
2018-09-06T11:32:16.597Z,14.25
2018-09-06T11:34:51.324Z,12.65
2018-09-06T11:37:26.090Z,16.02
2018-09-06T11:40:01.031Z,16.02
2018-09-06T11:42:36.656Z,52.75
2018-09-06T11:45:11.326Z,41.02
2018-09-06T11:47:48.210Z,30.82
2018-09-06T11:50:23.092Z,14.85
2018-09-06T11:52:58.773Z,14.73
2018-09-06T11:55:33.906Z,13.93
2018-09-06T11:58:10.362Z,16.70
2018-09-06T12:00:46.762Z,12.68
2018-09-06T12:03:22.118Z,10.88
2018-09-06T12:05:58.794Z,10.05
2018-09-06T12:08:34.349Z,14.90
2018-09-06T12:11:09.598Z,11.60
2018-09-06T12:13:47.794Z,14.40
2018-09-06T12:16:25.617Z,10.23
2018-09-06T12:19:01.456Z,8.90
2018-09-06T12:21:36.288Z,23.45
2018-09-06T12:24:13.735Z,9.15
2018-09-06T12:26:48.642Z,9.55
2018-09-06T12:29:24.046Z,9.33
2018-09-06T12:31:58.963Z,11.50
2018-09-06T12:34:34.529Z,7.20
2018-09-06T12:39:52.618Z,18.30
2018-09-06T12:42:28.607Z,25.08
2018-09-06T12:45:04.062Z,8.60
2018-09-06T12:47:40.306Z,7.62
2018-09-06T12:50:19.269Z,10.72
2018-09-06T12:52:54.368Z,10.40
2018-09-06T12:55:31.631Z,9.25
2018-09-06T12:58:06.594Z,10.78
2018-09-06T13:00:42.277Z,6.55
2018-09-06T13:03:18.102Z,8.63
2018-09-06T13:05:54.900Z,7.45
2018-09-06T13:08:29.910Z,8.08
2018-09-06T13:11:05.187Z,13.72
2018-09-06T13:13:40.183Z,8.55
2018-09-06T13:16:15.465Z,8.43
2018-09-06T13:18:50.819Z,9.03
2018-09-06T13:21:25.862Z,6.75
2018-09-06T13:24:02.941Z,9.53
2018-09-06T13:26:38.937Z,9.03
2018-09-06T13:29:16.237Z,15.50
2018-09-06T13:31:51.220Z,96.63
2018-09-06T13:34:27.714Z,27.25
2018-09-06T13:37:03.873Z,9.55
2018-09-06T13:39:43.433Z,10.63
2018-09-06T13:42:18.354Z,5.87
2018-09-06T13:44:53.610Z,5.72
2018-09-06T13:47:28.767Z,7.25
2018-09-06T13:50:04.307Z,8.80
2018-09-06T13:52:39.638Z,6.78
2018-09-06T13:55:14.993Z,8.63
2018-09-06T13:57:49.842Z,9.60
2018-09-06T14:00:25.082Z,7.72
2018-09-06T14:03:00.088Z,7.65
2018-09-06T14:05:36.091Z,7.12
2018-09-06T14:08:11.796Z,9.90
2018-09-06T14:10:47.998Z,9.10
2018-09-06T14:13:22.886Z,6.35
2018-09-06T14:15:57.807Z,6.85
2018-09-06T14:18:32.856Z,7.90
2018-09-06T14:21:07.908Z,7.50
2018-09-06T14:23:43.181Z,8.35
2018-09-06T14:26:18.553Z,13.62
2018-09-06T14:28:54.012Z,76.77
2018-09-06T14:31:28.892Z,11.65
2018-09-06T14:34:04.746Z,18.50
2018-09-06T14:36:39.608Z,7.97
2018-09-06T14:39:14.703Z,18.50
2018-09-06T14:41:49.468Z,12.10
2018-09-06T14:44:24.550Z,8.13
2018-09-06T14:46:59.318Z,8.53
2018-09-06T14:49:34.644Z,13.40
2018-09-06T14:52:11.854Z,11.55
2018-09-06T14:54:49.538Z,7.75
2018-09-06T14:57:24.446Z,7.35
2018-09-06T14:59:59.905Z,10.68
2018-09-06T15:02:34.991Z,6.87
2018-09-06T15:05:10.124Z,6.87
2018-09-06T15:07:45.085Z,7.33
2018-09-06T15:10:20.034Z,7.85
2018-09-06T15:12:55.033Z,7.65
2018-09-06T15:15:30.504Z,17.45
2018-09-06T15:18:05.535Z,7.92
2018-09-06T15:20:40.873Z,12.70
2018-09-06T15:23:15.573Z,10.28
2018-09-06T15:25:50.697Z,17.23
2018-09-06T15:28:25.756Z,17.65
2018-09-06T15:31:00.930Z,43.70
2018-09-06T15:33:35.935Z,24.10
2018-09-06T15:36:11.061Z,13.60
2018-09-06T15:38:46.137Z,23.57
2018-09-06T15:41:21.549Z,10.05
2018-09-06T15:43:56.490Z,9.60
2018-09-06T15:46:31.681Z,9.95
2018-09-06T15:49:08.308Z,10.75
2018-09-06T15:51:43.019Z,11.03
2018-09-06T15:54:17.932Z,10.68
2018-09-06T15:56:53.288Z,11.53
2018-09-06T15:59:28.713Z,11.25
2018-09-06T16:02:04.565Z,8.10
2018-09-06T16:04:40.055Z,8.93
2018-09-06T16:09:54.714Z,13.25
2018-09-06T16:12:30.622Z,14.20
2018-09-06T16:15:06.738Z,13.03
2018-09-06T16:17:42.863Z,17.70
2018-09-06T16:20:17.552Z,13.65
2018-09-06T16:22:51.987Z,12.60
2018-09-06T16:25:26.352Z,34.38
2018-09-06T16:28:00.661Z,48.50
2018-09-06T16:30:34.993Z,46.20
2018-09-06T16:33:09.419Z,32.73
2018-09-06T16:35:43.825Z,19.42
2018-09-06T16:38:18.223Z,17.45
2018-09-06T16:40:52.615Z,17.82
2018-09-06T16:43:27.001Z,14.68
2018-09-06T16:46:01.366Z,14.60
2018-09-06T16:48:35.815Z,21.33
2018-09-06T16:51:10.123Z,22.80
2018-09-06T16:53:44.454Z,17.32
2018-09-06T16:56:18.707Z,19.05
2018-09-06T16:58:53.140Z,18.27
2018-09-06T17:01:27.578Z,16.05
2018-09-06T17:04:01.915Z,21.40
2018-09-06T17:06:36.384Z,18.90
2018-09-06T17:09:10.896Z,16.80
2018-09-06T17:11:45.385Z,15.32
2018-09-06T17:14:20.030Z,15.05
2018-09-06T17:16:54.483Z,17.92
2018-09-06T17:19:28.814Z,36.08
2018-09-06T17:22:03.262Z,20.97
2018-09-06T17:24:37.687Z,28.07
2018-09-06T17:27:12.059Z,20.70
2018-09-06T17:29:46.294Z,41.02
2018-09-06T17:32:20.827Z,43.65
2018-09-06T17:34:55.179Z,25.48
2018-09-06T17:37:29.801Z,16.23
2018-09-06T17:40:04.203Z,11.40
2018-09-06T17:42:38.615Z,16.70
2018-09-06T17:45:13.586Z,10.68
2018-09-06T17:47:48.127Z,8.45
2018-09-06T17:50:22.458Z,12.10
2018-09-06T17:52:56.979Z,28.07
2018-09-06T17:55:31.447Z,7.10
2018-09-06T17:58:05.947Z,8.53
2018-09-06T18:00:42.678Z,7.20
2018-09-06T18:03:17.060Z,9.30
2018-09-06T18:05:51.449Z,16.25
2018-09-06T18:08:25.926Z,12.82
2018-09-06T18:11:00.344Z,17.27
2018-09-06T18:13:34.806Z,9.33
2018-09-06T18:16:09.417Z,13.03
2018-09-06T18:18:43.781Z,10.93
2018-09-06T18:21:18.282Z,9.73
2018-09-06T18:23:52.612Z,18.48
2018-09-06T18:26:27.435Z,7.60
2018-09-06T18:29:01.870Z,12.10
2018-09-06T18:31:36.360Z,8.93
2018-09-06T18:34:10.672Z,42.35
2018-09-06T18:36:44.968Z,26.73
2018-09-06T18:39:19.355Z,12.45
2018-09-06T18:41:53.754Z,19.98
2018-09-06T18:44:28.166Z,12.23
2018-09-06T18:47:02.496Z,11.03
2018-09-06T18:49:37.045Z,10.25
2018-09-06T18:52:11.263Z,12.65
2018-09-06T18:54:45.661Z,10.15
2018-09-06T18:57:20.071Z,5.60
2018-09-06T18:59:54.372Z,13.53
2018-09-06T19:02:28.796Z,10.08
2018-09-06T19:05:03.278Z,8.08
2018-09-06T19:07:37.557Z,12.35
2018-09-06T19:10:11.803Z,8.38
2018-09-06T19:12:46.167Z,8.25
2018-09-06T19:15:20.588Z,6.75
2018-09-06T19:17:55.134Z,14.80
2018-09-06T19:20:29.378Z,10.00
2018-09-06T19:23:03.762Z,11.43
2018-09-06T19:25:38.106Z,11.20
2018-09-06T19:28:12.502Z,9.18
2018-09-06T19:30:46.821Z,7.62
2018-09-06T19:33:21.387Z,10.03
2018-09-06T19:35:55.759Z,25.62
2018-09-06T19:38:30.171Z,11.55
2018-09-06T19:41:04.760Z,21.57
2018-09-06T19:43:39.258Z,8.45
2018-09-06T19:46:13.478Z,9.65
2018-09-06T19:48:47.871Z,6.90
2018-09-06T19:51:22.223Z,24.07
2018-09-06T19:53:56.578Z,4.65
2018-09-06T19:56:30.916Z,10.23
2018-09-06T19:59:05.427Z,5.05
2018-09-06T20:01:40.464Z,8.93
2018-09-06T20:04:14.980Z,6.45
2018-09-06T20:06:49.414Z,13.18
2018-09-06T20:09:23.951Z,5.42
2018-09-06T20:11:58.444Z,8.58
2018-09-06T20:14:32.764Z,6.58
2018-09-06T20:17:07.015Z,14.43
2018-09-06T20:19:41.386Z,4.92
2018-09-06T20:22:15.871Z,7.55
2018-09-06T20:24:50.371Z,5.00
2018-09-06T20:27:25.048Z,4.28
2018-09-06T20:29:59.653Z,7.45
2018-09-06T20:32:33.963Z,6.60
2018-09-06T20:35:08.207Z,6.20
2018-09-06T20:37:42.758Z,30.00
2018-09-06T20:40:17.203Z,27.67
2018-09-06T20:42:51.482Z,13.18
2018-09-06T20:45:25.827Z,8.95
2018-09-06T20:48:00.136Z,8.85
2018-09-06T20:50:34.451Z,7.78
2018-09-06T20:53:08.880Z,6.72
2018-09-06T20:55:43.409Z,6.95
2018-09-06T20:58:17.878Z,7.83
2018-09-06T21:00:52.313Z,9.33
2018-09-06T21:03:26.780Z,7.83
2018-09-06T21:06:01.291Z,10.60
2018-09-06T21:08:35.845Z,5.00
2018-09-06T21:11:10.744Z,6.28
2018-09-06T21:13:45.130Z,5.50
2018-09-06T21:16:19.700Z,9.45
2018-09-06T21:18:53.868Z,7.58
2018-09-06T21:21:28.201Z,7.42
2018-09-06T21:24:02.568Z,10.80
2018-09-06T21:26:37.195Z,8.55
2018-09-06T21:29:11.750Z,6.05
2018-09-06T21:31:46.530Z,6.87
2018-09-06T21:34:21.049Z,7.67
2018-09-06T21:36:55.463Z,8.85
2018-09-06T21:39:29.854Z,11.12
2018-09-06T21:42:04.285Z,35.65
2018-09-06T21:44:38.714Z,30.95
2018-09-06T21:47:13.082Z,27.35
2018-09-06T21:49:47.352Z,9.30
2018-09-06T21:52:21.693Z,12.35
2018-09-06T21:54:56.051Z,6.90
2018-09-06T21:57:30.470Z,6.55
2018-09-06T22:00:05.542Z,9.05
2018-09-06T22:02:45.506Z,6.70
2018-09-06T22:05:19.833Z,5.42
2018-09-06T22:07:54.183Z,9.73
2018-09-06T22:10:28.515Z,7.10
2018-09-06T22:13:02.875Z,8.10
2018-09-06T22:15:37.307Z,6.58
2018-09-06T22:18:11.872Z,10.38
2018-09-06T22:20:46.389Z,8.05
2018-09-06T22:23:20.853Z,7.25
2018-09-06T22:25:55.165Z,6.08
2018-09-06T22:28:29.980Z,12.63
2018-09-06T22:31:04.629Z,7.72
2018-09-06T22:33:39.119Z,6.70
2018-09-06T22:36:13.405Z,9.15
2018-09-06T22:38:47.746Z,21.12
2018-09-06T22:41:22.245Z,21.55
2018-09-06T22:43:56.816Z,33.78
2018-09-06T22:46:31.429Z,11.40
2018-09-06T22:49:05.885Z,18.12
2018-09-06T22:51:40.392Z,8.43
2018-09-06T22:54:14.725Z,8.93
2018-09-06T22:56:49.129Z,9.10
2018-09-06T22:59:23.417Z,9.45
2018-09-06T23:01:58.719Z,12.58
2018-09-06T23:04:33.180Z,9.48
2018-09-06T23:07:07.723Z,8.60
2018-09-06T23:09:42.220Z,5.28
2018-09-06T23:12:16.507Z,8.10
2018-09-06T23:14:50.969Z,8.03
2018-09-06T23:17:25.394Z,9.90
2018-09-06T23:19:59.895Z,8.75
2018-09-06T23:22:37.977Z,7.85
2018-09-06T23:25:12.431Z,7.12
2018-09-06T23:27:46.980Z,6.65
2018-09-06T23:30:21.488Z,6.05
2018-09-06T23:32:55.822Z,6.70
2018-09-06T23:35:30.111Z,6.60
2018-09-06T23:38:04.603Z,10.48
2018-09-06T23:40:39.101Z,11.35
2018-09-06T23:43:13.493Z,19.77
2018-09-06T23:45:51.668Z,23.38
2018-09-06T23:48:28.210Z,27.42
2018-09-06T23:51:02.791Z,10.72
2018-09-06T23:53:37.207Z,6.85
2018-09-06T23:56:11.632Z,8.65
2018-09-06T23:58:46.096Z,8.50
